Time;durP1;ratioP1;P1;durP2;ratioP2;P2;SDS_P1;SDS_P2;PMS_P1;PMS_P2;Temp;Humidity;BMP_temperature;BMP_pressure;BME280_temperature;BME280_humidity;BME280_pressure;Samples;Min_cycle;Max_cycle;Signal;HPM_P1;HPM_P2
2021/07/11 00:00:06;;;;;;;9.30;7.03;;;20.50;90.30;;;;;;5002923;28;20456;-89
2021/07/11 00:02:33;;;;;;;8.60;7.57;;;20.50;90.00;;;;;;5005496;28;20460;-90
2021/07/11 00:05:03;;;;;;;9.30;7.07;;;20.50;90.00;;;;;;5009627;28;20831;-89
2021/07/11 00:07:31;;;;;;;6.90;6.30;;;20.60;89.90;;;;;;5016023;28;20436;-90
2021/07/11 00:10:18;;;;;;;9.17;6.60;;;20.60;89.90;;;;;;5001971;28;20452;-89
2021/07/11 00:12:48;;;;;;;8.13;7.43;;;20.60;90.00;;;;;;4999259;28;20476;-89
2021/07/11 00:17:59;;;;;;;9.57;7.60;;;20.60;90.00;;;;;;4997909;28;20444;-90
2021/07/11 00:20:28;;;;;;;12.00;8.70;;;20.60;90.00;;;;;;4998614;28;20460;-90
2021/07/11 00:22:56;;;;;;;12.93;11.63;;;20.50;90.10;;;;;;4998756;28;20490;-90
2021/07/11 00:25:25;;;;;;;12.93;11.30;;;20.30;89.80;;;;;;4998600;28;20480;-90
2021/07/11 00:27:55;;;;;;;14.30;12.90;;;20.10;90.10;;;;;;4997795;28;21023;-90
2021/07/11 00:30:24;;;;;;;14.40;13.00;;;20.00;90.40;;;;;;4999423;28;20836;-89
2021/07/11 00:32:51;;;;;;;16.73;14.97;;;19.90;90.60;;;;;;4998702;28;20872;-89
2021/07/11 00:35:19;;;;;;;18.40;16.50;;;19.70;90.70;;;;;;4997587;28;20460;-89
2021/07/11 00:37:46;;;;;;;20.10;17.77;;;19.60;91.00;;;;;;4997970;28;20456;-89
2021/07/11 00:40:14;;;;;;;27.00;22.38;;;19.50;91.20;;;;;;4997110;28;20425;-89
2021/07/11 00:42:45;;;;;;;26.73;22.00;;;19.40;91.60;;;;;;4998611;28;20288;-89
2021/07/11 00:45:13;;;;;;;23.80;20.97;;;19.20;91.80;;;;;;5000556;28;20468;-92
2021/07/11 00:47:42;;;;;;;27.27;22.47;;;19.20;92.00;;;;;;4998983;28;20437;-92
2021/07/11 00:50:11;;;;;;;22.83;20.57;;;19.00;92.10;;;;;;4998107;28;20863;-92
2021/07/11 00:52:38;;;;;;;26.17;22.27;;;19.00;92.50;;;;;;4997167;28;21001;-92
2021/07/11 00:55:06;;;;;;;20.67;18.60;;;19.00;92.80;;;;;;4997322;28;20531;-92
2021/07/11 00:57:34;;;;;;;21.53;19.33;;;19.00;92.50;;;;;;4997541;28;20468;-92
2021/07/11 01:00:05;;;;;;;22.70;20.53;;;19.00;92.80;;;;;;4998817;28;20516;-92
2021/07/11 01:02:36;;;;;;;20.20;18.20;;;18.90;92.80;;;;;;4998716;28;20451;-92
2021/07/11 01:05:07;;;;;;;21.17;18.90;;;18.80;92.80;;;;;;4998760;28;20523;-92
2021/07/11 01:07:42;;;;;;;20.10;18.03;;;18.80;93.00;;;;;;4998478;28;20508;-92
2021/07/11 01:10:17;;;;;;;42.37;20.87;;;18.70;92.90;;;;;;4997947;28;20412;-92
2021/07/11 01:12:47;;;;;;;20.33;17.40;;;18.80;93.10;;;;;;4997669;28;20977;-92
2021/07/11 01:15:15;;;;;;;19.17;17.33;;;18.70;93.20;;;;;;4998092;28;20449;-92
2021/07/11 01:17:43;;;;;;;19.60;17.47;;;18.70;93.20;;;;;;4998165;28;20434;-93
2021/07/11 01:20:43;;;;;;;21.43;17.10;;;18.70;93.40;;;;;;4998024;28;20437;-93
2021/07/11 01:23:13;;;;;;;18.23;16.43;;;18.60;93.40;;;;;;4987521;28;20484;-93
2021/07/11 01:25:45;;;;;;;17.13;15.47;;;18.50;93.30;;;;;;4998661;28;20413;-92
2021/07/11 01:28:16;;;;;;;19.13;17.07;;;18.50;93.50;;;;;;4998348;28;20455;-93
2021/07/11 01:30:44;;;;;;;19.23;17.43;;;18.50;93.70;;;;;;4999101;28;20476;-92
2021/07/11 01:33:12;;;;;;;18.53;16.57;;;18.50;93.80;;;;;;4998375;28;20978;-92
2021/07/11 01:35:41;;;;;;;17.47;15.77;;;18.50;93.90;;;;;;4997154;28;20457;-92
2021/07/11 01:38:09;;;;;;;17.80;15.87;;;18.60;93.70;;;;;;4997565;28;20437;-92
2021/07/11 01:40:37;;;;;;;18.80;16.80;;;18.60;93.60;;;;;;4996537;28;20875;-93
2021/07/11 01:43:06;;;;;;;18.00;16.10;;;18.60;93.50;;;;;;4999507;28;20508;-93
2021/07/11 01:45:34;;;;;;;17.63;15.93;;;18.60;93.40;;;;;;4999628;28;20954;-93
2021/07/11 01:48:01;;;;;;;27.30;15.87;;;18.70;93.20;;;;;;4997070;28;20527;-93
2021/07/11 01:50:28;;;;;;;18.37;15.90;;;18.60;93.10;;;;;;4997194;28;20935;-93
2021/07/11 01:52:56;;;;;;;21.10;16.70;;;18.60;93.30;;;;;;4997274;28;20461;-93
2021/07/11 01:55:25;;;;;;;18.30;16.60;;;18.60;93.30;;;;;;4996845;28;20455;-92
2021/07/11 01:57:52;;;;;;;18.00;16.33;;;18.70;93.40;;;;;;4999511;28;20456;-92
2021/07/11 02:00:22;;;;;;;20.27;15.70;;;18.70;93.20;;;;;;5002405;28;20462;-92
2021/07/11 02:02:49;;;;;;;17.33;15.67;;;18.70;93.10;;;;;;5004222;28;20453;-92
2021/07/11 02:05:18;;;;;;;19.30;16.70;;;18.80;93.10;;;;;;5002370;28;20483;-92
2021/07/11 02:07:45;;;;;;;20.13;16.53;;;18.80;92.80;;;;;;5004313;28;20467;-91
2021/07/11 02:10:14;;;;;;;23.43;17.13;;;18.80;92.80;;;;;;5003673;28;20460;-90
2021/07/11 02:12:45;;;;;;;21.33;18.93;;;18.70;92.80;;;;;;5001603;28;20473;-90
2021/07/11 02:15:13;;;;;;;20.63;18.53;;;18.80;93.00;;;;;;5000587;28;20428;-90
2021/07/11 02:17:45;;;;;;;21.73;19.40;;;18.80;92.80;;;;;;5016679;28;20428;-92
2021/07/11 02:20:12;;;;;;;21.60;19.30;;;18.80;92.90;;;;;;5019316;28;20417;-92
2021/07/11 02:22:42;;;;;;;21.73;19.00;;;18.90;92.90;;;;;;5013707;28;20456;-93
2021/07/11 02:25:11;;;;;;;22.70;19.27;;;18.90;92.70;;;;;;5009217;28;20456;-93
2021/07/11 02:27:39;;;;;;;22.00;19.70;;;18.90;92.70;;;;;;5004815;28;20463;-93
2021/07/11 02:30:12;;;;;;;20.87;16.53;;;18.90;92.80;;;;;;5006215;28;20440;-92
2021/07/11 02:32:44;;;;;;;19.27;17.47;;;19.00;92.90;;;;;;5007179;28;20978;-92
2021/07/11 02:35:15;;;;;;;18.93;17.03;;;19.10;92.70;;;;;;5010156;28;20444;-93
2021/07/11 02:37:47;;;;;;;19.30;17.20;;;19.10;92.40;;;;;;5011808;28;20478;-92
2021/07/11 02:40:15;;;;;;;19.67;17.70;;;19.10;92.40;;;;;;5017222;28;20407;-92
2021/07/11 02:42:42;;;;;;;17.27;15.60;;;19.20;92.40;;;;;;5005758;28;20452;-92
2021/07/11 02:45:10;;;;;;;20.57;16.33;;;19.30;92.30;;;;;;4999930;28;20499;-91
2021/07/11 02:47:42;;;;;;;19.70;17.37;;;19.30;92.20;;;;;;4998213;28;20456;-92
2021/07/11 02:50:14;;;;;;;18.80;16.90;;;19.40;92.10;;;;;;4999348;28;20417;-91
2021/07/11 02:52:42;;;;;;;19.90;16.60;;;19.40;91.80;;;;;;5000263;28;20487;-92
2021/07/11 02:55:14;;;;;;;21.03;18.80;;;19.40;91.80;;;;;;4998984;28;20495;-91
2021/07/11 02:57:44;;;;;;;21.83;17.00;;;19.40;91.90;;;;;;4999798;28;20440;-91
2021/07/11 03:00:12;;;;;;;19.73;17.80;;;19.40;91.90;;;;;;4999634;28;20520;-91
2021/07/11 03:02:41;;;;;;;21.20;18.97;;;19.20;91.70;;;;;;4999687;28;20472;-91
2021/07/11 03:05:12;;;;;;;25.70;19.90;;;19.20;92.10;;;;;;4999160;28;20860;-90
2021/07/11 03:07:39;;;;;;;22.53;19.03;;;19.10;92.30;;;;;;5009663;28;20449;-90
2021/07/11 03:10:09;;;;;;;20.63;18.50;;;19.10;92.40;;;;;;5017989;28;20464;-90
2021/07/11 03:12:37;;;;;;;24.03;17.87;;;19.00;92.40;;;;;;5016362;28;20468;-90
2021/07/11 03:15:05;;;;;;;20.50;18.37;;;18.90;92.70;;;;;;5000439;28;20446;-91
2021/07/11 03:17:34;;;;;;;21.43;18.40;;;18.90;92.90;;;;;;4998745;28;20456;-91
2021/07/11 03:20:05;;;;;;;20.30;18.30;;;18.90;93.20;;;;;;4999592;28;20488;-92
2021/07/11 03:22:36;;;;;;;22.47;19.00;;;18.70;93.20;;;;;;4999034;28;20858;-91
2021/07/11 03:25:06;;;;;;;20.17;18.07;;;18.70;93.50;;;;;;4997554;28;20460;-91
2021/07/11 03:27:33;;;;;;;23.20;18.57;;;18.60;93.80;;;;;;4997429;28;20456;-91
2021/07/11 03:30:07;;;;;;;23.10;20.10;;;18.50;94.00;;;;;;4997862;28;20462;-92
2021/07/11 03:32:38;;;;;;;24.67;21.07;;;18.50;94.20;;;;;;4997450;28;20444;-92
2021/07/11 03:35:09;;;;;;;22.57;19.10;;;18.40;94.20;;;;;;4997836;28;20444;-92
2021/07/11 03:37:40;;;;;;;22.57;20.33;;;18.40;94.40;;;;;;4997309;28;20441;-92
2021/07/11 03:40:08;;;;;;;23.60;21.10;;;18.50;94.70;;;;;;4997858;28;20445;-91
2021/07/11 03:42:39;;;;;;;23.97;18.70;;;18.50;94.40;;;;;;4996289;28;20522;-91
2021/07/11 03:45:09;;;;;;;24.67;21.87;;;18.50;94.40;;;;;;4996416;28;20468;-90
2021/07/11 03:47:41;;;;;;;29.40;21.37;;;18.50;94.30;;;;;;4996736;28;20479;-90
2021/07/11 03:50:12;;;;;;;25.13;19.80;;;18.60;94.40;;;;;;4996314;28;20775;-90
2021/07/11 03:52:45;;;;;;;24.00;21.20;;;18.60;94.30;;;;;;4996359;28;20476;-90
2021/07/11 03:55:12;;;;;;;23.57;20.97;;;18.60;94.40;;;;;;4996250;28;20424;-90
2021/07/11 03:57:40;;;;;;;26.37;20.67;;;18.60;94.50;;;;;;4996348;28;20436;-90
2021/07/11 04:00:07;;;;;;;30.50;21.57;;;18.60;94.80;;;;;;4996480;28;20445;-90
2021/07/11 04:02:36;;;;;;;25.63;22.93;;;18.50;94.30;;;;;;4996933;28;20449;-90
2021/07/11 04:05:05;;;;;;;27.00;22.80;;;18.50;94.40;;;;;;4997236;28;20480;-90
2021/07/11 04:07:36;;;;;;;31.73;24.50;;;18.50;94.50;;;;;;4997062;28;20471;-90
2021/07/11 04:10:05;;;;;;;30.43;22.17;;;18.50;94.70;;;;;;4998109;28;20432;-90
2021/07/11 04:12:33;;;;;;;28.03;23.10;;;18.60;94.80;;;;;;4996748;28;20456;-90
2021/07/11 04:15:00;;;;;;;27.23;23.03;;;18.60;94.60;;;;;;4997667;28;20942;-90
2021/07/11 04:17:29;;;;;;;30.30;22.10;;;18.60;94.60;;;;;;4996888;28;20443;-91
2021/07/11 04:19:59;;;;;;;26.10;23.13;;;18.60;94.50;;;;;;4997354;28;20503;-90
2021/07/11 04:22:28;;;;;;;26.83;22.60;;;18.60;94.50;;;;;;4996811;28;20441;-90
2021/07/11 04:24:56;;;;;;;25.47;22.43;;;18.60;94.50;;;;;;4996889;28;21037;-91
2021/07/11 04:27:25;;;;;;;24.30;21.60;;;18.70;94.50;;;;;;4996846;28;20441;-90
2021/07/11 04:29:53;;;;;;;28.87;24.50;;;18.70;94.50;;;;;;4997286;28;20463;-91
2021/07/11 04:32:20;;;;;;;28.60;22.73;;;18.70;94.70;;;;;;4997231;28;20945;-90
2021/07/11 04:34:47;;;;;;;26.30;23.17;;;18.70;94.60;;;;;;4997248;28;20520;-91
2021/07/11 04:37:14;;;;;;;26.60;22.43;;;18.70;94.60;;;;;;4998050;28;20448;-91
2021/07/11 04:39:41;;;;;;;30.70;25.67;;;18.70;94.20;;;;;;4997965;28;20448;-90
2021/07/11 04:42:10;;;;;;;31.93;24.30;;;18.70;94.40;;;;;;4997407;28;20826;-88
2021/07/11 04:44:37;;;;;;;34.53;25.60;;;18.70;94.50;;;;;;4998115;28;20527;-88
2021/07/11 04:47:04;;;;;;;32.73;25.00;;;18.70;94.40;;;;;;4996678;28;20433;-89
2021/07/11 04:49:31;;;;;;;32.50;26.47;;;18.70;94.40;;;;;;4997936;28;20451;-89
2021/07/11 04:51:58;;;;;;;28.40;24.57;;;18.70;94.60;;;;;;4997067;28;20444;-89
2021/07/11 04:54:25;;;;;;;28.03;24.30;;;18.70;94.40;;;;;;4997076;28;20476;-89
2021/07/11 04:56:52;;;;;;;32.00;24.90;;;18.80;94.50;;;;;;4997940;28;20467;-89
2021/07/11 04:59:20;;;;;;;31.63;26.03;;;18.90;94.40;;;;;;4997669;28;20456;-89
2021/07/11 05:01:47;;;;;;;30.40;23.33;;;18.90;94.20;;;;;;4999355;28;20449;-89
2021/07/11 05:04:14;;;;;;;29.77;24.87;;;18.90;94.40;;;;;;5002362;28;20483;-89
2021/07/11 05:06:41;;;;;;;28.10;23.57;;;19.00;94.20;;;;;;5008152;28;20452;-90
2021/07/11 05:09:08;;;;;;;33.30;25.47;;;19.00;94.30;;;;;;5011986;28;20443;-90
2021/07/11 05:11:35;;;;;;;30.10;25.60;;;19.10;94.40;;;;;;5007178;28;20459;-89
2021/07/11 05:14:02;;;;;;;30.83;25.03;;;19.20;94.10;;;;;;5002703;28;20457;-89
2021/07/11 05:16:30;;;;;;;38.30;26.27;;;19.20;94.00;;;;;;4994536;28;20923;-89
2021/07/11 05:18:57;;;;;;;36.07;25.70;;;19.20;93.80;;;;;;4994918;28;20440;-89
2021/07/11 05:21:24;;;;;;;30.40;24.20;;;19.20;93.80;;;;;;4994989;28;20452;-89
2021/07/11 05:23:51;;;;;;;32.90;28.47;;;19.30;93.50;;;;;;4994520;28;20483;-89
2021/07/11 05:26:18;;;;;;;36.50;26.87;;;19.40;93.80;;;;;;4994452;28;20495;-90
2021/07/11 05:28:45;;;;;;;31.97;27.20;;;19.50;93.80;;;;;;4994268;28;20432;-90
2021/07/11 05:31:12;;;;;;;35.03;27.33;;;19.50;93.40;;;;;;4994302;28;20950;-89
2021/07/11 05:33:40;;;;;;;38.20;27.40;;;19.50;93.30;;;;;;4994215;28;20465;-89
2021/07/11 05:36:07;;;;;;;33.90;28.07;;;19.60;93.30;;;;;;4995465;28;20444;-89
2021/07/11 05:38:34;;;;;;;33.83;28.10;;;19.60;92.80;;;;;;4994911;28;20964;-89
2021/07/11 05:41:01;;;;;;;41.90;29.30;;;19.60;93.20;;;;;;4994706;28;20942;-89
2021/07/11 05:43:28;;;;;;;38.20;29.40;;;19.60;93.10;;;;;;4994181;28;20479;-89
2021/07/11 05:45:55;;;;;;;34.57;29.50;;;19.60;93.20;;;;;;4993973;28;20848;-89
2021/07/11 05:48:22;;;;;;;40.63;30.77;;;19.60;92.90;;;;;;4994182;28;20463;-89
2021/07/11 05:50:50;;;;;;;39.03;30.67;;;19.60;93.10;;;;;;4994172;28;20460;-89
2021/07/11 05:53:17;;;;;;;37.37;28.90;;;19.60;93.20;;;;;;4994576;28;21001;-90
2021/07/11 05:55:44;;;;;;;40.70;32.27;;;19.50;92.90;;;;;;4994283;28;20463;-90
2021/07/11 05:58:11;;;;;;;39.90;30.90;;;19.50;92.90;;;;;;4995069;28;20464;-90
2021/07/11 06:00:37;;;;;;;36.87;30.43;;;19.50;93.40;;;;;;4994619;28;20503;-90
2021/07/11 06:03:04;;;;;;;34.90;29.20;;;19.50;93.40;;;;;;4994058;28;20477;-89
2021/07/11 06:05:31;;;;;;;32.63;28.80;;;19.50;93.20;;;;;;4994182;28;20456;-89
2021/07/11 06:07:59;;;;;;;35.90;28.40;;;19.50;93.40;;;;;;4994988;28;20459;-89
2021/07/11 06:10:26;;;;;;;36.40;27.23;;;19.50;93.10;;;;;;4994445;28;20464;-89
2021/07/11 06:12:53;;;;;;;35.17;28.83;;;19.30;93.10;;;;;;4994654;28;20966;-88
2021/07/11 06:15:20;;;;;;;32.87;27.10;;;19.30;93.30;;;;;;4995328;28;20810;-89
2021/07/11 06:17:46;;;;;;;34.07;28.00;;;19.40;93.60;;;;;;4994398;28;20448;-89
2021/07/11 06:20:13;;;;;;;31.90;26.40;;;19.30;93.50;;;;;;4995623;28;20447;-89
2021/07/11 06:22:41;;;;;;;33.97;28.93;;;19.20;93.60;;;;;;4996525;28;20468;-88
2021/07/11 06:25:10;;;;;;;35.17;30.27;;;19.10;93.70;;;;;;4993924;28;20496;-90
2021/07/11 06:27:39;;;;;;;33.70;27.13;;;19.20;93.90;;;;;;4994571;28;20452;-89
2021/07/11 06:30:09;;;;;;;32.83;28.10;;;19.40;93.90;;;;;;4993754;28;20441;-89
2021/07/11 06:32:36;;;;;;;36.17;28.13;;;19.30;93.40;;;;;;4994477;28;20467;-89
2021/07/11 06:35:03;;;;;;;33.30;27.07;;;19.30;93.40;;;;;;4993947;28;20448;-89
2021/07/11 06:37:30;;;;;;;30.20;26.00;;;19.20;93.30;;;;;;4994068;28;20489;-89
2021/07/11 06:39:57;;;;;;;31.43;25.10;;;19.20;93.40;;;;;;4993604;28;20934;-89
2021/07/11 06:42:25;;;;;;;31.87;25.87;;;19.10;93.20;;;;;;4994774;28;20440;-89
2021/07/11 06:44:52;;;;;;;31.70;25.57;;;19.10;93.60;;;;;;4995438;28;20467;-89
2021/07/11 06:47:19;;;;;;;27.83;24.10;;;19.10;93.80;;;;;;4994928;28;20416;-89
2021/07/11 06:49:45;;;;;;;29.03;25.50;;;19.10;93.40;;;;;;4994423;28;20459;-89
2021/07/11 06:52:12;;;;;;;29.80;22.83;;;19.10;93.70;;;;;;4996580;28;20436;-90
2021/07/11 06:54:39;;;;;;;36.87;26.73;;;19.20;93.80;;;;;;4997106;28;20485;-90
2021/07/11 06:57:06;;;;;;;31.70;25.93;;;19.30;93.80;;;;;;4997761;28;20475;-90
2021/07/11 06:59:35;;;;;;;34.53;26.53;;;19.30;93.20;;;;;;4998132;28;20476;-89
2021/07/11 07:02:02;;;;;;;31.83;24.67;;;19.30;92.60;;;;;;4997437;28;20785;-89
2021/07/11 07:04:29;;;;;;;31.70;23.07;;;19.40;92.90;;;;;;4997256;28;20453;-89
2021/07/11 07:06:56;;;;;;;27.83;22.43;;;19.40;92.60;;;;;;4997074;28;20492;-89
2021/07/11 07:09:23;;;;;;;26.10;23.27;;;19.40;92.60;;;;;;4997062;28;20463;-89
2021/07/11 07:11:49;;;;;;;28.87;23.60;;;19.40;92.80;;;;;;4996976;28;20969;-89
2021/07/11 07:14:16;;;;;;;26.63;22.90;;;19.40;92.40;;;;;;4997086;28;20472;-89
2021/07/11 07:16:44;;;;;;;25.87;21.77;;;19.30;92.30;;;;;;4997226;28;20448;-89
2021/07/11 07:19:11;;;;;;;30.03;22.60;;;19.20;92.60;;;;;;4997018;28;20440;-89
2021/07/11 07:21:38;;;;;;;29.90;22.73;;;19.10;92.70;;;;;;4996858;28;20413;-89
2021/07/11 07:24:05;;;;;;;28.13;23.63;;;19.10;93.10;;;;;;4996550;28;20992;-89
2021/07/11 07:26:31;;;;;;;28.27;24.20;;;19.10;93.40;;;;;;4996515;28;20864;-89
2021/07/11 07:28:58;;;;;;;26.20;21.87;;;19.10;93.20;;;;;;4996740;28;20452;-89
2021/07/11 07:31:25;;;;;;;33.57;23.80;;;19.20;93.10;;;;;;4996520;28;20448;-89
2021/07/11 07:33:53;;;;;;;27.87;22.50;;;19.10;92.90;;;;;;4996538;28;20472;-89
2021/07/11 07:36:20;;;;;;;21.73;19.17;;;19.10;93.20;;;;;;4997262;28;20491;-89
2021/07/11 07:38:47;;;;;;;29.43;20.60;;;19.10;92.90;;;;;;4996561;28;20500;-89
2021/07/11 07:41:13;;;;;;;25.10;18.90;;;19.10;92.90;;;;;;4996809;28;20796;-89
2021/07/11 07:43:40;;;;;;;22.03;18.57;;;19.10;92.90;;;;;;4996576;28;20452;-89
2021/07/11 07:46:07;;;;;;;20.33;18.13;;;19.10;92.80;;;;;;4996063;28;20997;-89
2021/07/11 07:48:34;;;;;;;22.00;18.93;;;19.10;93.20;;;;;;4996411;28;20444;-89
2021/07/11 07:51:02;;;;;;;22.27;19.07;;;19.20;92.90;;;;;;4996290;28;20452;-89
2021/07/11 07:53:29;;;;;;;25.43;18.47;;;19.20;93.10;;;;;;4995964;28;20994;-89
2021/07/11 07:55:55;;;;;;;26.70;20.40;;;19.20;92.80;;;;;;4996454;28;20943;-89
2021/07/11 07:58:22;;;;;;;24.57;21.03;;;19.20;93.00;;;;;;4995862;28;20926;-89
2021/07/11 08:00:50;;;;;;;26.50;20.57;;;19.40;93.30;;;;;;4996102;28;20927;-89
2021/07/11 08:03:17;;;;;;;23.93;19.90;;;19.50;92.90;;;;;;4995363;28;21048;-89
2021/07/11 08:05:43;;;;;;;24.50;21.90;;;19.60;92.50;;;;;;4995958;28;20488;-89
2021/07/11 08:08:11;;;;;;;25.97;21.27;;;19.70;92.20;;;;;;4995928;28;20460;-89
2021/07/11 08:10:38;;;;;;;22.63;20.00;;;19.90;92.20;;;;;;4996138;28;20931;-89
2021/07/11 08:13:06;;;;;;;24.23;20.13;;;20.10;91.80;;;;;;4995805;28;20982;-89
2021/07/11 08:15:33;;;;;;;27.77;22.77;;;20.30;91.50;;;;;;4996007;28;20448;-89
2021/07/11 08:18:00;;;;;;;26.00;21.87;;;20.50;90.60;;;;;;4995811;28;20941;-90
2021/07/11 08:20:27;;;;;;;26.80;20.73;;;20.60;90.60;;;;;;4995966;28;20821;-90
2021/07/11 08:22:54;;;;;;;27.27;22.80;;;20.80;90.40;;;;;;4995707;28;20463;-88
2021/07/11 08:25:23;;;;;;;23.23;20.73;;;20.90;88.30;;;;;;4995394;28;20456;-88
2021/07/11 08:27:53;;;;;;;24.90;21.97;;;21.10;87.60;;;;;;4996244;28;20794;-89
2021/07/11 08:30:20;;;;;;;25.27;22.57;;;21.30;87.40;;;;;;4996978;28;20449;-91
2021/07/11 08:32:48;;;;;;;25.13;22.40;;;21.50;86.10;;;;;;4995814;28;20911;-90
2021/07/11 08:35:23;;;;;;;26.07;23.27;;;21.50;85.40;;;;;;4996006;28;20443;-90
2021/07/11 08:37:50;;;;;;;24.57;21.97;;;21.60;82.90;;;;;;4995664;28;20421;-90
2021/07/11 08:40:17;;;;;;;28.87;25.77;;;21.70;81.70;;;;;;4995448;28;20456;-89
2021/07/11 08:42:49;;;;;;;24.63;21.87;;;21.90;79.90;;;;;;4996218;28;20567;-89
2021/07/11 08:45:16;;;;;;;26.80;23.37;;;22.00;79.30;;;;;;4995724;28;20437;-89
2021/07/11 08:47:43;;;;;;;27.17;22.20;;;22.30;79.60;;;;;;4995586;28;20518;-89
2021/07/11 08:50:12;;;;;;;25.43;22.70;;;22.50;78.60;;;;;;4995531;28;20436;-89
2021/07/11 08:52:39;;;;;;;24.90;21.77;;;22.80;78.80;;;;;;4995437;28;20817;-89
2021/07/11 08:55:13;;;;;;;23.43;21.13;;;23.00;76.50;;;;;;4997065;28;20440;-89
2021/07/11 08:57:41;;;;;;;22.70;20.47;;;23.20;77.90;;;;;;4995882;28;20424;-88
2021/07/11 09:00:10;;;;;;;22.13;19.87;;;23.40;75.00;;;;;;4995043;28;20459;-88
2021/07/11 09:02:37;;;;;;;22.10;19.90;;;23.60;74.40;;;;;;4995877;28;20782;-89
2021/07/11 09:05:05;;;;;;;21.57;19.23;;;23.50;73.30;;;;;;4995597;28;20452;-89
2021/07/11 09:07:32;;;;;;;20.97;18.90;;;23.50;74.20;;;;;;4994974;28;20845;-88
2021/07/11 09:10:00;;;;;;;17.37;15.47;;;23.60;74.40;;;;;;4994755;28;20460;-89
2021/07/11 09:12:27;;;;;;;16.37;14.70;;;23.70;72.70;;;;;;4994717;28;20433;-90
2021/07/11 09:14:54;;;;;;;14.70;12.50;;;23.80;71.60;;;;;;4993991;28;20421;-89
2021/07/11 09:17:23;;;;;;;13.00;11.60;;;23.80;71.40;;;;;;4995183;28;20467;-89
2021/07/11 09:19:51;;;;;;;13.00;11.73;;;23.90;69.70;;;;;;4995092;28;20985;-90
2021/07/11 09:22:20;;;;;;;12.03;10.83;;;23.90;67.50;;;;;;4995156;28;20503;-90
2021/07/11 09:24:49;;;;;;;14.47;13.07;;;24.10;69.30;;;;;;4995071;28;20441;-90
2021/07/11 09:27:18;;;;;;;12.00;10.80;;;24.20;70.10;;;;;;4994662;28;20479;-90
2021/07/11 09:29:46;;;;;;;11.23;10.07;;;24.10;68.60;;;;;;4995179;28;20946;-90
2021/07/11 09:32:25;;;;;;;11.50;10.40;;;24.10;69.70;;;;;;4994605;28;20472;-89
2021/07/11 09:34:51;;;;;;;10.17;9.17;;;24.10;68.60;;;;;;4995047;28;20428;-90
2021/07/11 09:37:19;;;;;;;7.80;7.03;;;24.20;70.70;;;;;;4994334;28;20431;-89
2021/07/11 09:39:52;;;;;;;6.70;6.20;;;24.30;68.50;;;;;;4994804;28;20428;-89
2021/07/11 09:42:27;;;;;;;7.80;7.17;;;24.60;69.80;;;;;;4996191;28;20457;-87
2021/07/11 09:44:54;;;;;;;6.47;5.87;;;25.10;67.50;;;;;;4996918;28;20438;-85
2021/07/11 09:47:23;;;;;;;6.20;5.67;;;25.40;64.30;;;;;;4997567;28;20480;-85
2021/07/11 09:49:58;;;;;;;5.57;5.07;;;25.50;63.90;;;;;;4997348;28;20441;-86
2021/07/11 09:52:29;;;;;;;5.50;5.00;;;25.50;62.40;;;;;;4997693;28;20462;-86
2021/07/11 09:54:57;;;;;;;6.20;4.70;;;25.40;62.10;;;;;;4998927;28;20472;-85
2021/07/11 09:57:33;;;;;;;6.70;4.47;;;25.30;63.10;;;;;;4997619;28;20461;-85
2021/07/11 10:00:01;;;;;;;4.50;4.20;;;25.30;62.80;;;;;;4997897;28;20614;-85
2021/07/11 10:02:30;;;;;;;4.60;4.20;;;25.10;63.10;;;;;;4996825;28;20452;-85
2021/07/11 10:04:57;;;;;;;4.07;3.70;;;25.00;64.40;;;;;;4997919;28;20767;-85
2021/07/11 10:07:24;;;;;;;4.50;4.10;;;24.90;65.30;;;;;;4998546;28;20476;-85
2021/07/11 10:09:50;;;;;;;7.73;4.87;;;24.90;64.70;;;;;;4999135;28;20923;-85
2021/07/11 10:12:17;;;;;;;5.23;3.83;;;25.00;65.50;;;;;;4998304;28;20453;-85
2021/07/11 10:14:44;;;;;;;4.20;3.40;;;25.30;64.00;;;;;;4999064;28;20463;-85
2021/07/11 10:17:10;;;;;;;3.57;3.27;;;25.70;60.70;;;;;;5003671;28;20440;-85
2021/07/11 10:19:39;;;;;;;5.80;3.00;;;26.20;60.60;;;;;;5004657;28;20457;-85
2021/07/11 10:22:11;;;;;;;4.23;2.80;;;26.60;58.20;;;;;;4994555;28;20437;-85
2021/07/11 10:24:41;;;;;;;10.93;5.37;;;27.20;55.40;;;;;;4994436;28;20480;-85
2021/07/11 10:27:18;;;;;;;3.83;3.23;;;27.90;55.00;;;;;;4998044;28;20465;-86
2021/07/11 10:29:46;;;;;;;3.13;2.87;;;28.40;51.00;;;;;;4998592;28;20443;-86
2021/07/11 10:32:29;;;;;;;2.93;2.63;;;28.60;51.00;;;;;;4998231;28;20922;-86
2021/07/11 10:35:09;;;;;;;2.90;2.70;;;28.40;50.50;;;;;;4998565;28;20440;-86
2021/07/11 10:37:48;;;;;;;3.33;2.60;;;27.90;52.00;;;;;;4998611;28;20436;-85
2021/07/11 10:40:20;;;;;;;3.03;2.83;;;27.60;52.50;;;;;;4999133;28;20455;-86
2021/07/11 10:42:48;;;;;;;3.80;2.90;;;27.20;53.10;;;;;;4997935;28;20859;-85
2021/07/11 10:45:17;;;;;;;3.80;3.03;;;27.30;53.80;;;;;;4998148;28;20456;-85
2021/07/11 10:47:45;;;;;;;3.10;2.80;;;27.30;53.10;;;;;;4998175;28;20993;-84
2021/07/11 10:50:28;;;;;;;4.00;3.07;;;27.60;52.90;;;;;;5066203;22;20491;-72
2021/07/11 10:52:56;;;;;;;2.60;2.40;;;28.10;51.80;;;;;;5076348;28;20502;-71
2021/07/11 10:55:24;;;;;;;3.60;2.27;;;29.00;48.70;;;;;;5076369;28;20654;-71
2021/07/11 10:57:51;;;;;;;2.20;2.07;;;30.20;46.00;;;;;;5076022;28;20939;-71
2021/07/11 11:00:20;;;;;;;2.30;2.07;;;31.60;43.40;;;;;;5075946;28;20831;-72
2021/07/11 11:02:50;;;;;;;4.10;2.40;;;32.20;40.90;;;;;;5076196;28;20436;-73
2021/07/11 11:05:21;;;;;;;4.40;2.60;;;32.10;41.10;;;;;;5076149;28;20471;-73
2021/07/11 11:07:52;;;;;;;2.67;2.47;;;31.80;42.10;;;;;;5075734;28;20467;-71
2021/07/11 11:10:28;;;;;;;2.67;2.47;;;31.80;42.90;;;;;;5076145;28;20439;-74
2021/07/11 11:13:13;;;;;;;2.23;2.13;;;31.60;42.30;;;;;;5076056;28;20464;-75
2021/07/11 11:15:43;;;;;;;3.33;2.53;;;31.00;42.80;;;;;;5075774;28;20432;-74
2021/07/11 11:18:21;;;;;;;2.63;2.30;;;30.60;44.30;;;;;;5076015;28;20421;-76
2021/07/11 11:20:57;;;;;;;3.20;2.67;;;30.30;43.40;;;;;;5075943;28;20789;-73
2021/07/11 11:23:26;;;;;;;6.80;6.20;;;30.00;44.70;;;;;;5075839;28;20475;-72
2021/07/11 11:25:53;;;;;;;3.87;3.57;;;30.60;43.60;;;;;;5075818;28;20445;-73
2021/07/11 11:28:31;;;;;;;6.07;5.57;;;30.70;42.60;;;;;;5075396;28;21000;-73
2021/07/11 11:31:16;;;;;;;4.83;3.60;;;30.40;43.50;;;;;;5075769;28;20435;-73
2021/07/11 11:33:47;;;;;;;6.87;4.97;;;29.90;44.30;;;;;;5075617;28;20472;-72
2021/07/11 11:36:18;;;;;;;44.87;41.17;;;29.40;46.20;;;;;;5075307;28;20957;-73
2021/07/11 11:38:46;;;;;;;30.80;28.27;;;28.90;46.10;;;;;;5074661;28;20436;-73
2021/07/11 11:41:14;;;;;;;31.40;28.60;;;28.40;48.10;;;;;;5075553;28;20453;-73
2021/07/11 11:43:41;;;;;;;29.90;27.70;;;27.90;48.10;;;;;;5075412;28;20514;-72
2021/07/11 11:46:09;;;;;;;15.87;14.57;;;27.50;49.90;;;;;;5075386;28;20447;-73
2021/07/11 11:48:36;;;;;;;16.90;15.37;;;27.10;51.10;;;;;;5075378;28;20440;-73
2021/07/11 11:51:05;;;;;;;10.70;9.63;;;26.80;51.70;;;;;;5075061;28;20469;-72
2021/07/11 11:53:42;;;;;;;6.47;5.97;;;26.40;52.40;;;;;;5075291;28;20461;-72
2021/07/11 11:56:13;;;;;;;6.20;5.80;;;26.10;53.80;;;;;;5075323;28;20495;-72
2021/07/11 11:58:40;;;;;;;4.77;4.37;;;25.90;54.70;;;;;;5075264;28;20922;-72
2021/07/11 12:01:09;;;;;;;3.87;3.57;;;25.70;55.40;;;;;;5076004;28;20444;-72
2021/07/11 12:03:36;;;;;;;4.43;4.00;;;25.60;55.70;;;;;;5075031;28;20834;-72
2021/07/11 12:06:04;;;;;;;4.10;3.73;;;25.50;56.50;;;;;;5075104;28;20444;-72
2021/07/11 12:08:33;;;;;;;3.97;3.57;;;25.40;56.40;;;;;;5074927;28;20480;-72
2021/07/11 12:11:00;;;;;;;4.00;3.70;;;25.30;57.10;;;;;;5074666;28;20987;-72
2021/07/11 12:13:29;;;;;;;4.50;3.90;;;25.30;56.60;;;;;;5074867;28;20488;-72
2021/07/11 12:16:07;;;;;;;5.50;4.30;;;25.30;57.30;;;;;;5074886;28;20449;-72
2021/07/11 12:18:48;;;;;;;4.63;4.20;;;25.20;56.50;;;;;;5074879;28;20428;-72
2021/07/11 12:21:22;;;;;;;3.67;3.37;;;25.10;56.40;;;;;;5074781;28;20429;-72
2021/07/11 12:24:00;;;;;;;3.63;3.23;;;25.10;57.60;;;;;;5074623;28;20469;-72
2021/07/11 12:26:27;;;;;;;4.33;3.50;;;25.10;57.80;;;;;;5074500;28;20452;-72
2021/07/11 12:28:58;;;;;;;4.07;3.67;;;25.20;57.00;;;;;;5074563;28;20471;-73
2021/07/11 12:31:26;;;;;;;4.10;3.70;;;25.10;56.90;;;;;;5074556;28;20437;-72
2021/07/11 12:33:58;;;;;;;4.87;3.33;;;25.10;56.90;;;;;;5074426;28;20863;-72
2021/07/11 12:36:25;;;;;;;3.37;3.07;;;25.20;57.00;;;;;;5074416;28;20440;-72
2021/07/11 12:38:53;;;;;;;4.20;3.33;;;25.40;57.00;;;;;;5074378;28;20445;-72
2021/07/11 12:41:26;;;;;;;4.20;2.63;;;25.60;55.40;;;;;;5074431;28;20456;-74